sensor_id;sensor_type;location;lat;lon;timestamp;temperature;humidity
975;DHT22;6115;49.296;10.602;2023-06-14T00:01:08;16.00;41.50
975;DHT22;6115;49.296;10.602;2023-06-14T00:06:09;15.90;41.90
975;DHT22;6115;49.296;10.602;2023-06-14T00:11:10;15.90;42.20
975;DHT22;6115;49.296;10.602;2023-06-14T00:16:11;15.80;42.60
975;DHT22;6115;49.296;10.602;2023-06-14T00:21:11;15.80;42.60
975;DHT22;6115;49.296;10.602;2023-06-14T00:26:12;15.60;42.30
975;DHT22;6115;49.296;10.602;2023-06-14T00:31:13;15.50;43.10
975;DHT22;6115;49.296;10.602;2023-06-14T00:36:13;15.50;42.70
975;DHT22;6115;49.296;10.602;2023-06-14T00:41:17;15.30;43.00
975;DHT22;6115;49.296;10.602;2023-06-14T00:46:17;15.30;43.60
975;DHT22;6115;49.296;10.602;2023-06-14T00:51:19;15.10;44.20
975;DHT22;6115;49.296;10.602;2023-06-14T00:56:20;15.00;44.30
975;DHT22;6115;49.296;10.602;2023-06-14T01:01:21;15.00;44.20
975;DHT22;6115;49.296;10.602;2023-06-14T01:06:31;14.90;44.40
975;DHT22;6115;49.296;10.602;2023-06-14T01:11:38;14.80;44.90
975;DHT22;6115;49.296;10.602;2023-06-14T01:16:41;14.80;45.60
975;DHT22;6115;49.296;10.602;2023-06-14T01:21:42;14.80;45.60
975;DHT22;6115;49.296;10.602;2023-06-14T01:26:42;14.70;45.50
975;DHT22;6115;49.296;10.602;2023-06-14T01:31:46;14.70;45.50
975;DHT22;6115;49.296;10.602;2023-06-14T01:36:48;14.70;45.50
975;DHT22;6115;49.296;10.602;2023-06-14T01:41:51;14.60;45.40
975;DHT22;6115;49.296;10.602;2023-06-14T01:46:52;14.50;46.00
975;DHT22;6115;49.296;10.602;2023-06-14T01:51:53;14.50;46.10
975;DHT22;6115;49.296;10.602;2023-06-14T01:56:57;14.40;46.60
975;DHT22;6115;49.296;10.602;2023-06-14T02:01:57;14.40;46.60
975;DHT22;6115;49.296;10.602;2023-06-14T02:06:58;14.30;48.40
975;DHT22;6115;49.296;10.602;2023-06-14T02:11:58;14.20;48.60
975;DHT22;6115;49.296;10.602;2023-06-14T02:16:59;14.10;48.70
975;DHT22;6115;49.296;10.602;2023-06-14T02:22:01;14.10;48.00
975;DHT22;6115;49.296;10.602;2023-06-14T02:27:02;13.90;49.30
975;DHT22;6115;49.296;10.602;2023-06-14T02:32:04;13.90;49.40
975;DHT22;6115;49.296;10.602;2023-06-14T02:37:07;13.80;49.20
975;DHT22;6115;49.296;10.602;2023-06-14T02:42:08;13.70;49.20
975;DHT22;6115;49.296;10.602;2023-06-14T02:47:08;13.70;49.50
975;DHT22;6115;49.296;10.602;2023-06-14T02:52:09;13.50;50.00
975;DHT22;6115;49.296;10.602;2023-06-14T02:57:10;13.50;50.40
975;DHT22;6115;49.296;10.602;2023-06-14T03:02:11;13.40;50.50
975;DHT22;6115;49.296;10.602;2023-06-14T03:07:11;13.30;50.40
975;DHT22;6115;49.296;10.602;2023-06-14T03:12:12;13.30;50.50
975;DHT22;6115;49.296;10.602;2023-06-14T03:17:13;13.20;50.50
975;DHT22;6115;49.296;10.602;2023-06-14T03:22:14;13.20;51.50
975;DHT22;6115;49.296;10.602;2023-06-14T03:27:14;13.30;50.90
975;DHT22;6115;49.296;10.602;2023-06-14T03:32:15;13.20;50.80
975;DHT22;6115;49.296;10.602;2023-06-14T03:37:15;13.10;50.90
975;DHT22;6115;49.296;10.602;2023-06-14T03:42:16;13.10;51.40
975;DHT22;6115;49.296;10.602;2023-06-14T03:47:20;13.20;51.30
975;DHT22;6115;49.296;10.602;2023-06-14T03:52:21;13.10;51.60
975;DHT22;6115;49.296;10.602;2023-06-14T03:57:23;13.20;52.20
975;DHT22;6115;49.296;10.602;2023-06-14T04:02:24;13.10;52.10
975;DHT22;6115;49.296;10.602;2023-06-14T04:07:25;13.10;51.90
975;DHT22;6115;49.296;10.602;2023-06-14T04:12:28;13.10;52.20
975;DHT22;6115;49.296;10.602;2023-06-14T04:17:29;13.10;52.40
975;DHT22;6115;49.296;10.602;2023-06-14T04:22:30;13.00;52.50
975;DHT22;6115;49.296;10.602;2023-06-14T04:27:31;13.00;53.00
975;DHT22;6115;49.296;10.602;2023-06-14T04:32:34;13.10;53.10
975;DHT22;6115;49.296;10.602;2023-06-14T04:37:39;13.20;52.90
975;DHT22;6115;49.296;10.602;2023-06-14T04:42:41;13.30;52.80
975;DHT22;6115;49.296;10.602;2023-06-14T04:47:45;13.40;52.90
975;DHT22;6115;49.296;10.602;2023-06-14T04:52:46;13.50;52.70
975;DHT22;6115;49.296;10.602;2023-06-14T04:57:52;13.60;52.50
975;DHT22;6115;49.296;10.602;2023-06-14T05:02:53;13.70;52.50
975;DHT22;6115;49.296;10.602;2023-06-14T05:07:54;13.80;51.80
975;DHT22;6115;49.296;10.602;2023-06-14T05:12:55;14.00;51.60
975;DHT22;6115;49.296;10.602;2023-06-14T05:17:56;14.10;51.40
975;DHT22;6115;49.296;10.602;2023-06-14T05:22:56;14.20;50.90
975;DHT22;6115;49.296;10.602;2023-06-14T05:27:57;14.30;50.60
975;DHT22;6115;49.296;10.602;2023-06-14T05:32:57;14.50;50.30
975;DHT22;6115;49.296;10.602;2023-06-14T05:37:58;14.60;49.90
975;DHT22;6115;49.296;10.602;2023-06-14T05:42:58;14.70;50.20
975;DHT22;6115;49.296;10.602;2023-06-14T05:47:59;14.80;49.20
975;DHT22;6115;49.296;10.602;2023-06-14T05:53:00;15.00;48.30
975;DHT22;6115;49.296;10.602;2023-06-14T05:58:00;15.00;48.30
975;DHT22;6115;49.296;10.602;2023-06-14T06:03:01;15.10;48.00
975;DHT22;6115;49.296;10.602;2023-06-14T06:08:01;15.20;48.60
975;DHT22;6115;49.296;10.602;2023-06-14T06:13:02;15.30;48.30
975;DHT22;6115;49.296;10.602;2023-06-14T06:18:03;15.40;48.50
975;DHT22;6115;49.296;10.602;2023-06-14T06:23:03;15.60;48.40
975;DHT22;6115;49.296;10.602;2023-06-14T06:28:04;15.80;47.90
975;DHT22;6115;49.296;10.602;2023-06-14T06:33:05;15.90;47.60
975;DHT22;6115;49.296;10.602;2023-06-14T06:38:05;16.10;47.20
975;DHT22;6115;49.296;10.602;2023-06-14T06:43:06;16.20;47.30
975;DHT22;6115;49.296;10.602;2023-06-14T06:48:07;16.40;46.90
975;DHT22;6115;49.296;10.602;2023-06-14T06:53:07;16.60;47.10
975;DHT22;6115;49.296;10.602;2023-06-14T06:58:08;16.70;47.20
975;DHT22;6115;49.296;10.602;2023-06-14T07:03:09;16.90;46.50
975;DHT22;6115;49.296;10.602;2023-06-14T07:08:09;17.10;46.00
975;DHT22;6115;49.296;10.602;2023-06-14T07:13:10;17.20;45.70
975;DHT22;6115;49.296;10.602;2023-06-14T07:18:11;17.30;46.30
975;DHT22;6115;49.296;10.602;2023-06-14T07:23:12;17.40;45.60
975;DHT22;6115;49.296;10.602;2023-06-14T07:28:12;17.60;45.20
975;DHT22;6115;49.296;10.602;2023-06-14T07:33:13;17.80;44.00
975;DHT22;6115;49.296;10.602;2023-06-14T07:38:13;17.90;44.60
975;DHT22;6115;49.296;10.602;2023-06-14T07:43:14;18.10;43.80
975;DHT22;6115;49.296;10.602;2023-06-14T07:48:15;18.20;43.80
975;DHT22;6115;49.296;10.602;2023-06-14T07:53:15;18.40;43.70
975;DHT22;6115;49.296;10.602;2023-06-14T07:58:16;18.60;43.50
975;DHT22;6115;49.296;10.602;2023-06-14T08:03:16;18.70;42.90
975;DHT22;6115;49.296;10.602;2023-06-14T08:08:18;18.90;42.30
975;DHT22;6115;49.296;10.602;2023-06-14T08:13:19;19.10;42.00
975;DHT22;6115;49.296;10.602;2023-06-14T08:18:19;19.40;41.90
975;DHT22;6115;49.296;10.602;2023-06-14T08:23:20;19.50;40.30
975;DHT22;6115;49.296;10.602;2023-06-14T08:28:21;19.70;39.60
975;DHT22;6115;49.296;10.602;2023-06-14T08:33:22;20.00;39.40
975;DHT22;6115;49.296;10.602;2023-06-14T08:38:22;20.20;38.00
975;DHT22;6115;49.296;10.602;2023-06-14T08:43:23;20.50;37.10
975;DHT22;6115;49.296;10.602;2023-06-14T08:48:26;20.50;38.00
975;DHT22;6115;49.296;10.602;2023-06-14T08:53:28;20.70;37.30
975;DHT22;6115;49.296;10.602;2023-06-14T08:58:32;20.90;36.80
975;DHT22;6115;49.296;10.602;2023-06-14T09:03:34;21.20;36.40
975;DHT22;6115;49.296;10.602;2023-06-14T09:08:35;21.50;35.60
975;DHT22;6115;49.296;10.602;2023-06-14T09:13:36;21.80;35.50
975;DHT22;6115;49.296;10.602;2023-06-14T09:18:38;22.00;35.40
975;DHT22;6115;49.296;10.602;2023-06-14T09:23:43;22.20;34.90
975;DHT22;6115;49.296;10.602;2023-06-14T09:28:49;22.20;35.10
975;DHT22;6115;49.296;10.602;2023-06-14T09:33:51;22.30;34.00
975;DHT22;6115;49.296;10.602;2023-06-14T09:39:02;22.50;33.30
975;DHT22;6115;49.296;10.602;2023-06-14T09:44:08;22.60;31.30
975;DHT22;6115;49.296;10.602;2023-06-14T09:49:09;22.70;32.30
975;DHT22;6115;49.296;10.602;2023-06-14T09:54:15;23.20;31.50
975;DHT22;6115;49.296;10.602;2023-06-14T09:59:19;23.20;31.00
975;DHT22;6115;49.296;10.602;2023-06-14T10:04:21;23.30;30.00
975;DHT22;6115;49.296;10.602;2023-06-14T10:09:22;23.80;30.50
975;DHT22;6115;49.296;10.602;2023-06-14T10:14:23;24.20;30.80
975;DHT22;6115;49.296;10.602;2023-06-14T10:19:48;24.70;29.20
975;DHT22;6115;49.296;10.602;2023-06-14T10:24:52;25.10;29.00
975;DHT22;6115;49.296;10.602;2023-06-14T10:39:58;25.00;28.20
975;DHT22;6115;49.296;10.602;2023-06-14T10:44:58;24.80;28.90
975;DHT22;6115;49.296;10.602;2023-06-14T10:50:08;24.70;29.70
975;DHT22;6115;49.296;10.602;2023-06-14T10:55:17;24.90;29.90
975;DHT22;6115;49.296;10.602;2023-06-14T11:00:20;24.70;29.30
975;DHT22;6115;49.296;10.602;2023-06-14T11:05:27;24.80;30.20
975;DHT22;6115;49.296;10.602;2023-06-14T11:10:41;25.10;28.20
975;DHT22;6115;49.296;10.602;2023-06-14T11:15:45;24.90;26.80
975;DHT22;6115;49.296;10.602;2023-06-14T11:20:47;25.00;29.30
975;DHT22;6115;49.296;10.602;2023-06-14T11:25:51;25.50;28.40
975;DHT22;6115;49.296;10.602;2023-06-14T11:31:02;25.70;27.00
975;DHT22;6115;49.296;10.602;2023-06-14T11:36:05;25.60;27.40
975;DHT22;6115;49.296;10.602;2023-06-14T11:41:08;25.70;29.30
975;DHT22;6115;49.296;10.602;2023-06-14T11:46:13;25.60;28.10
975;DHT22;6115;49.296;10.602;2023-06-14T11:51:19;25.30;27.90
975;DHT22;6115;49.296;10.602;2023-06-14T11:56:20;25.40;28.20
975;DHT22;6115;49.296;10.602;2023-06-14T12:01:21;25.60;27.20
975;DHT22;6115;49.296;10.602;2023-06-14T12:06:31;25.40;27.70
975;DHT22;6115;49.296;10.602;2023-06-14T12:11:40;25.30;28.10
975;DHT22;6115;49.296;10.602;2023-06-14T12:16:41;25.50;28.10
975;DHT22;6115;49.296;10.602;2023-06-14T12:21:48;25.40;27.10
975;DHT22;6115;49.296;10.602;2023-06-14T12:26:52;25.30;26.60
975;DHT22;6115;49.296;10.602;2023-06-14T12:31:53;25.60;26.80
975;DHT22;6115;49.296;10.602;2023-06-14T12:36:54;26.00;26.20
975;DHT22;6115;49.296;10.602;2023-06-14T12:41:56;26.80;26.70
975;DHT22;6115;49.296;10.602;2023-06-14T12:46:58;27.20;24.00
975;DHT22;6115;49.296;10.602;2023-06-14T12:51:59;26.80;24.30
975;DHT22;6115;49.296;10.602;2023-06-14T12:56:59;26.60;25.00
975;DHT22;6115;49.296;10.602;2023-06-14T13:02:13;26.70;25.20
975;DHT22;6115;49.296;10.602;2023-06-14T13:07:14;26.60;25.00
975;DHT22;6115;49.296;10.602;2023-06-14T13:12:15;26.80;24.40
975;DHT22;6115;49.296;10.602;2023-06-14T13:17:16;27.00;26.80
975;DHT22;6115;49.296;10.602;2023-06-14T13:22:16;27.40;25.70
975;DHT22;6115;49.296;10.602;2023-06-14T13:27:17;27.30;24.60
975;DHT22;6115;49.296;10.602;2023-06-14T13:32:21;27.30;24.60
975;DHT22;6115;49.296;10.602;2023-06-14T13:37:22;27.40;24.50
975;DHT22;6115;49.296;10.602;2023-06-14T13:42:22;27.40;24.20
975;DHT22;6115;49.296;10.602;2023-06-14T13:47:23;27.20;23.70
975;DHT22;6115;49.296;10.602;2023-06-14T13:52:24;26.90;23.50
975;DHT22;6115;49.296;10.602;2023-06-14T13:57:25;26.80;24.90
975;DHT22;6115;49.296;10.602;2023-06-14T14:02:26;27.10;25.20
975;DHT22;6115;49.296;10.602;2023-06-14T14:07:27;27.40;24.50
975;DHT22;6115;49.296;10.602;2023-06-14T14:12:28;27.30;24.90
975;DHT22;6115;49.296;10.602;2023-06-14T14:17:29;27.30;23.70
975;DHT22;6115;49.296;10.602;2023-06-14T14:22:29;27.40;24.50
975;DHT22;6115;49.296;10.602;2023-06-14T14:27:30;27.60;23.70
975;DHT22;6115;49.296;10.602;2023-06-14T14:32:31;27.70;22.70
975;DHT22;6115;49.296;10.602;2023-06-14T14:37:31;27.80;22.50
975;DHT22;6115;49.296;10.602;2023-06-14T14:42:32;27.90;23.90
975;DHT22;6115;49.296;10.602;2023-06-14T14:47:33;28.20;23.90
975;DHT22;6115;49.296;10.602;2023-06-14T14:52:33;28.20;22.90
975;DHT22;6115;49.296;10.602;2023-06-14T14:57:34;27.80;23.50
975;DHT22;6115;49.296;10.602;2023-06-14T15:02:36;27.50;23.50
975;DHT22;6115;49.296;10.602;2023-06-14T15:07:37;27.00;23.60
975;DHT22;6115;49.296;10.602;2023-06-14T15:12:39;26.60;24.20
975;DHT22;6115;49.296;10.602;2023-06-14T15:17:40;26.30;24.20
975;DHT22;6115;49.296;10.602;2023-06-14T15:22:41;26.00;24.20
975;DHT22;6115;49.296;10.602;2023-06-14T15:27:41;25.70;24.60
975;DHT22;6115;49.296;10.602;2023-06-14T15:32:42;25.50;25.10
975;DHT22;6115;49.296;10.602;2023-06-14T15:37:43;25.40;24.90
975;DHT22;6115;49.296;10.602;2023-06-14T15:42:43;25.40;25.00
975;DHT22;6115;49.296;10.602;2023-06-14T15:47:44;25.30;25.30
975;DHT22;6115;49.296;10.602;2023-06-14T15:52:45;25.20;25.80
975;DHT22;6115;49.296;10.602;2023-06-14T15:57:46;25.00;25.30
975;DHT22;6115;49.296;10.602;2023-06-14T16:02:47;24.90;26.50
975;DHT22;6115;49.296;10.602;2023-06-14T16:07:49;25.00;25.80
975;DHT22;6115;49.296;10.602;2023-06-14T16:12:50;25.00;26.60
975;DHT22;6115;49.296;10.602;2023-06-14T16:17:50;25.00;26.00
975;DHT22;6115;49.296;10.602;2023-06-14T16:22:51;25.20;25.30
975;DHT22;6115;49.296;10.602;2023-06-14T16:27:52;25.30;25.20
975;DHT22;6115;49.296;10.602;2023-06-14T16:32:52;25.40;25.20
975;DHT22;6115;49.296;10.602;2023-06-14T16:37:53;25.40;25.00
975;DHT22;6115;49.296;10.602;2023-06-14T16:42:54;25.30;25.20
975;DHT22;6115;49.296;10.602;2023-06-14T16:47:55;25.30;25.80
975;DHT22;6115;49.296;10.602;2023-06-14T16:52:55;25.30;25.70
975;DHT22;6115;49.296;10.602;2023-06-14T16:57:57;25.20;25.80
975;DHT22;6115;49.296;10.602;2023-06-14T17:02:57;25.30;25.40
975;DHT22;6115;49.296;10.602;2023-06-14T17:07:59;25.20;25.50
975;DHT22;6115;49.296;10.602;2023-06-14T17:12:59;25.00;25.80
975;DHT22;6115;49.296;10.602;2023-06-14T17:18:00;25.00;26.00
975;DHT22;6115;49.296;10.602;2023-06-14T17:23:00;25.00;25.80
975;DHT22;6115;49.296;10.602;2023-06-14T17:28:02;25.00;25.70
975;DHT22;6115;49.296;10.602;2023-06-14T17:33:08;24.90;25.80
975;DHT22;6115;49.296;10.602;2023-06-14T17:38:09;24.80;26.40
975;DHT22;6115;49.296;10.602;2023-06-14T17:43:11;24.70;26.30
975;DHT22;6115;49.296;10.602;2023-06-14T17:48:12;24.60;27.40
975;DHT22;6115;49.296;10.602;2023-06-14T17:53:12;24.40;27.10
975;DHT22;6115;49.296;10.602;2023-06-14T17:58:13;24.30;27.20
975;DHT22;6115;49.296;10.602;2023-06-14T18:03:14;24.30;27.40
975;DHT22;6115;49.296;10.602;2023-06-14T18:08:14;24.30;27.80
975;DHT22;6115;49.296;10.602;2023-06-14T18:13:15;24.10;28.20
975;DHT22;6115;49.296;10.602;2023-06-14T18:18:16;24.00;28.40
975;DHT22;6115;49.296;10.602;2023-06-14T18:23:16;24.00;28.60
975;DHT22;6115;49.296;10.602;2023-06-14T18:28:17;23.90;28.60
975;DHT22;6115;49.296;10.602;2023-06-14T18:33:17;23.80;28.80
975;DHT22;6115;49.296;10.602;2023-06-14T18:38:19;23.60;28.40
975;DHT22;6115;49.296;10.602;2023-06-14T18:43:19;23.40;29.10
975;DHT22;6115;49.296;10.602;2023-06-14T18:48:21;23.20;29.00
975;DHT22;6115;49.296;10.602;2023-06-14T18:53:23;23.10;29.80
975;DHT22;6115;49.296;10.602;2023-06-14T18:58:27;23.00;29.50
975;DHT22;6115;49.296;10.602;2023-06-14T19:03:35;22.80;30.10
975;DHT22;6115;49.296;10.602;2023-06-14T19:08:35;22.70;30.70
975;DHT22;6115;49.296;10.602;2023-06-14T19:13:37;22.50;30.80
975;DHT22;6115;49.296;10.602;2023-06-14T19:18:38;22.40;31.40
975;DHT22;6115;49.296;10.602;2023-06-14T19:23:39;22.20;31.20
975;DHT22;6115;49.296;10.602;2023-06-14T19:28:40;22.00;31.30
975;DHT22;6115;49.296;10.602;2023-06-14T19:33:41;21.90;32.10
975;DHT22;6115;49.296;10.602;2023-06-14T19:38:41;21.70;32.50
975;DHT22;6115;49.296;10.602;2023-06-14T19:43:42;21.50;32.30
975;DHT22;6115;49.296;10.602;2023-06-14T19:48:43;21.40;32.20
975;DHT22;6115;49.296;10.602;2023-06-14T19:53:44;21.30;32.20
975;DHT22;6115;49.296;10.602;2023-06-14T19:58:45;20.90;33.00
975;DHT22;6115;49.296;10.602;2023-06-14T20:03:47;20.80;33.50
975;DHT22;6115;49.296;10.602;2023-06-14T20:08:49;20.70;33.70
975;DHT22;6115;49.296;10.602;2023-06-14T20:13:50;20.50;34.10
975;DHT22;6115;49.296;10.602;2023-06-14T20:18:50;20.30;34.60
975;DHT22;6115;49.296;10.602;2023-06-14T20:23:51;20.10;34.90
975;DHT22;6115;49.296;10.602;2023-06-14T20:28:52;19.90;35.00
975;DHT22;6115;49.296;10.602;2023-06-14T20:33:52;19.80;35.30
975;DHT22;6115;49.296;10.602;2023-06-14T20:38:53;19.70;35.40
975;DHT22;6115;49.296;10.602;2023-06-14T20:43:53;19.60;35.60
975;DHT22;6115;49.296;10.602;2023-06-14T20:48:57;19.40;35.80
975;DHT22;6115;49.296;10.602;2023-06-14T20:53:58;19.40;35.90
975;DHT22;6115;49.296;10.602;2023-06-14T20:58:58;19.40;36.10
975;DHT22;6115;49.296;10.602;2023-06-14T21:03:59;19.20;36.30
975;DHT22;6115;49.296;10.602;2023-06-14T21:09:00;19.20;36.60
975;DHT22;6115;49.296;10.602;2023-06-14T21:14:00;19.10;36.80
975;DHT22;6115;49.296;10.602;2023-06-14T21:19:01;19.10;37.10
975;DHT22;6115;49.296;10.602;2023-06-14T21:24:02;18.90;37.20
975;DHT22;6115;49.296;10.602;2023-06-14T21:29:03;18.80;37.50
975;DHT22;6115;49.296;10.602;2023-06-14T21:34:03;18.70;37.80
975;DHT22;6115;49.296;10.602;2023-06-14T21:39:04;18.70;38.00
975;DHT22;6115;49.296;10.602;2023-06-14T21:44:05;18.50;38.30
975;DHT22;6115;49.296;10.602;2023-06-14T21:49:05;18.40;38.60
975;DHT22;6115;49.296;10.602;2023-06-14T21:54:06;18.30;39.20
975;DHT22;6115;49.296;10.602;2023-06-14T21:59:06;18.20;39.10
975;DHT22;6115;49.296;10.602;2023-06-14T22:04:07;18.00;39.00
975;DHT22;6115;49.296;10.602;2023-06-14T22:09:08;18.00;39.00
975;DHT22;6115;49.296;10.602;2023-06-14T22:14:10;17.90;39.00
975;DHT22;6115;49.296;10.602;2023-06-14T22:19:11;17.80;39.60
975;DHT22;6115;49.296;10.602;2023-06-14T22:24:11;17.80;40.00
975;DHT22;6115;49.296;10.602;2023-06-14T22:29:15;17.70;40.40
975;DHT22;6115;49.296;10.602;2023-06-14T22:34:18;17.60;40.90
975;DHT22;6115;49.296;10.602;2023-06-14T22:39:18;17.50;41.30
975;DHT22;6115;49.296;10.602;2023-06-14T22:44:20;17.40;41.60
975;DHT22;6115;49.296;10.602;2023-06-14T22:49:20;17.30;42.20
975;DHT22;6115;49.296;10.602;2023-06-14T22:54:21;17.20;42.50
975;DHT22;6115;49.296;10.602;2023-06-14T22:59:22;17.10;42.60
975;DHT22;6115;49.296;10.602;2023-06-14T23:04:23;17.10;42.90
975;DHT22;6115;49.296;10.602;2023-06-14T23:09:23;17.00;42.80
975;DHT22;6115;49.296;10.602;2023-06-14T23:14:24;16.90;43.10
975;DHT22;6115;49.296;10.602;2023-06-14T23:19:25;16.80;43.50
975;DHT22;6115;49.296;10.602;2023-06-14T23:24:29;16.70;43.80
975;DHT22;6115;49.296;10.602;2023-06-14T23:29:30;16.70;44.00
975;DHT22;6115;49.296;10.602;2023-06-14T23:34:34;16.60;44.10
975;DHT22;6115;49.296;10.602;2023-06-14T23:39:35;16.60;44.50
975;DHT22;6115;49.296;10.602;2023-06-14T23:44:45;16.50;44.70
975;DHT22;6115;49.296;10.602;2023-06-14T23:49:45;16.40;44.90
975;DHT22;6115;49.296;10.602;2023-06-14T23:54:46;16.30;45.00
975;DHT22;6115;49.296;10.602;2023-06-14T23:59:46;16.20;45.30
